Aérodrome :
LOGIN :

S'inscrire | Disclaimer

   EN    FR    IT 

 










Légende :    VFR   VFR Marginal   IFR   IFR Intensif   IFR Très Intensif
Visi : 
Plafond : 
>= 8 km
>= 3000ft
5 à 8 km
1000 à 3000 ft
1500m à 5 km
500 à 1000 ft
800 à 1500m
200 à 500 ft
< 800m
< 200 ft
Symboles :   Orages  Brouillard  Fortes neiges  Fortes précipitations  Vent > 20 kt
SIGMETs :   Divers  Orages  Givrage  Turbulence  Onde Orograph.  Cendres Volcan.






- Altitude de l'aérodrome : 297 ft


EGVP - Middle Wallop

DERNIER METAR :
  • 281635Z 25016G28KT 9999 VCSH FEW013 SCT015CB 04/02 Q0998 TEMPO FEW015 RMK WHT TEMPO BLU

METARs EXPIRÉS :
  • 281622Z 24008KT 9999 6000S SHRA BKN015CB 04/02 Q0999 TEMPO 9999 NSW FEW015 BKN030 RMK WHT TEMPO BLU
  • 281610Z 24008KT 9999 -SHRA SCT018CB BKN030 04/02 Q0998 TEMPO FEW018
  • 281550Z 25008KT 9999 FEW018 SCT030 04/02 Q0998 TEMPO SHRA SCT018CB RMK BLU TEMPO WHT
  • 281523Z 26009KT 9999 -SHRA FEW018 SCT028 BKN130 04/02 Q0998 TEMPO 6000 SHRA SCT018CB RMK BLU TEMPO WHT
  • 281450Z 24011KT 9999 FEW010 SCT050 BKN130 05/02 Q0998 TEMPO SCT018CB RMK BLU TEMPO WHT
  • 281445Z 25010KT 9999 FEW018CB SCT060 BKN130 05/02 Q0998 TEMPO SCT018CB RMK BLU TEMPO WHT
  • 281421Z 24014KT 9999 -SHRA BKN018CB BKN060 05/01 Q0998 TEMPO BKN014CB RMK WHT TEMPO GRN
  • 281350Z 24015G25KT 9999 VCSH SCT026 SCT070 BKN130 05/02 Q0998 TEMPO 5000 SHRA BKN020CB RMK BLU TEMPO WHT

TAF TAF EGVP
Valide du 28 à 15h jusqu'au 29 à 00h UTC


281344Z 2815/2824 26014KT 9999 FEW020
TEMPO 2815/2819 27016G26KT -SHRA BKN020
PROB40
TEMPO 2815/2819 4000 SHRA BKN014CB
PROB30
TEMPO 2819/2821 27015G25KT -SHRA BKN020
ATIS : +44 1980 674 142



MET'MAP, la Météo Aéronautique d'un coup d'oeil ! - Copyright ORBIFLY Décembre 2007 - Disclaimer

ORBIFLY MET'MAP TEAM :

Programmation & Développement : Alexandra Zaïnal
Sur une idée originale de : Baudouin d'Aumeries
Assistance à la programmation : Marc-Olivier Méhu
Soutien technique & logistique : Manuel Goepfert

Contact : metmap@orbifly.com




SOURCES & CREDITS :

   NOAA